createdAt,value
2018-09-24T00:01:58.089Z,9.90
2018-09-24T00:04:26.292Z,9.90
2018-09-24T00:06:54.469Z,9.80
2018-09-24T00:09:22.644Z,9.80
2018-09-24T00:11:50.829Z,9.80
2018-09-24T00:14:19.037Z,9.80
2018-09-24T00:16:47.220Z,9.70
2018-09-24T00:19:15.415Z,9.80
2018-09-24T00:21:43.596Z,9.70
2018-09-24T00:24:11.777Z,9.70
2018-09-24T00:26:40.004Z,9.70
2018-09-24T00:29:08.200Z,9.60
2018-09-24T00:31:36.400Z,9.70
2018-09-24T00:34:04.597Z,9.70
2018-09-24T00:36:32.771Z,9.80
2018-09-24T00:39:00.944Z,9.70
2018-09-24T00:41:29.120Z,9.70
2018-09-24T00:43:57.368Z,9.60
2018-09-24T00:46:25.560Z,9.60
2018-09-24T00:48:53.764Z,9.70
2018-09-24T00:51:21.937Z,9.70
2018-09-24T00:53:50.135Z,9.70
2018-09-24T00:56:18.369Z,9.70
2018-09-24T00:58:46.591Z,9.80
2018-09-24T01:01:14.774Z,9.80
2018-09-24T01:03:42.959Z,9.90
2018-09-24T01:06:11.168Z,9.90
2018-09-24T01:08:39.360Z,9.90
2018-09-24T01:11:07.536Z,9.90
2018-09-24T01:13:35.744Z,10.00
2018-09-24T01:16:04.236Z,10.00
2018-09-24T01:18:32.444Z,10.00
2018-09-24T01:21:00.656Z,9.90
2018-09-24T01:23:28.872Z,9.90
2018-09-24T01:25:57.090Z,9.90
2018-09-24T01:28:25.335Z,9.90
2018-09-24T01:30:53.544Z,9.80
2018-09-24T01:33:21.736Z,9.80
2018-09-24T01:35:49.930Z,9.80
2018-09-24T01:38:18.253Z,9.80
2018-09-24T01:40:46.437Z,9.80
2018-09-24T01:43:14.616Z,9.70
2018-09-24T01:45:42.936Z,9.70
2018-09-24T01:48:11.152Z,9.60
2018-09-24T01:50:39.396Z,9.70
2018-09-24T01:53:08.172Z,9.60
2018-09-24T01:55:36.757Z,9.50
2018-09-24T01:58:05.435Z,9.40
2018-09-24T02:00:33.652Z,9.30
2018-09-24T02:03:01.829Z,9.30
2018-09-24T02:05:30.012Z,9.20
2018-09-24T02:07:58.202Z,9.20
2018-09-24T02:10:26.942Z,9.10
2018-09-24T02:12:57.252Z,9.10
2018-09-24T02:15:29.019Z,9.00
2018-09-24T02:17:57.236Z,8.90
2018-09-24T02:20:25.416Z,8.90
2018-09-24T02:22:53.608Z,8.80
2018-09-24T02:25:21.781Z,8.80
2018-09-24T02:27:50.008Z,8.80
2018-09-24T02:30:19.122Z,8.70
2018-09-24T02:32:47.317Z,8.70
2018-09-24T02:35:15.868Z,8.70
2018-09-24T02:37:44.077Z,8.60
2018-09-24T02:40:19.235Z,8.60
2018-09-24T02:42:47.749Z,8.60
2018-09-24T02:45:15.981Z,8.60
2018-09-24T02:47:44.212Z,8.50
2018-09-24T02:50:12.412Z,8.50
2018-09-24T02:52:40.604Z,8.60
2018-09-24T02:55:16.018Z,8.60
2018-09-24T02:57:44.460Z,8.60
2018-09-24T03:00:16.456Z,8.50
2018-09-24T03:02:44.876Z,8.60
2018-09-24T03:05:13.089Z,8.50
2018-09-24T03:07:41.336Z,8.50
2018-09-24T03:10:09.507Z,8.50
2018-09-24T03:12:37.838Z,8.50
2018-09-24T03:15:06.046Z,8.50
2018-09-24T03:17:34.233Z,8.40
2018-09-24T03:20:02.424Z,8.50
2018-09-24T03:22:30.601Z,8.50
2018-09-24T03:24:58.780Z,8.50
2018-09-24T03:27:26.983Z,8.50
2018-09-24T03:29:55.156Z,8.40
2018-09-24T03:32:23.355Z,8.40
2018-09-24T03:34:51.570Z,8.30
2018-09-24T03:37:19.753Z,8.30
2018-09-24T03:39:47.953Z,8.30
2018-09-24T03:42:16.138Z,8.20
2018-09-24T03:44:44.325Z,8.20
2018-09-24T03:47:12.514Z,8.20
2018-09-24T03:49:40.696Z,8.20
2018-09-24T03:52:09.093Z,8.20
2018-09-24T03:54:37.324Z,8.10
2018-09-24T03:57:05.573Z,8.00
2018-09-24T03:59:33.748Z,8.10
2018-09-24T04:02:01.924Z,8.10
2018-09-24T04:04:35.579Z,8.10
2018-09-24T04:07:09.130Z,8.00
2018-09-24T04:09:42.880Z,8.00
2018-09-24T04:12:16.513Z,8.00
2018-09-24T04:14:50.800Z,8.00
2018-09-24T04:17:24.526Z,8.00
2018-09-24T04:19:58.230Z,8.00
2018-09-24T04:22:31.881Z,8.00
2018-09-24T04:25:06.521Z,8.00
2018-09-24T04:27:40.290Z,8.10
2018-09-24T04:30:14.085Z,8.00
2018-09-24T04:32:47.768Z,8.10
2018-09-24T04:35:21.922Z,8.10
2018-09-24T04:37:55.604Z,8.10
2018-09-24T04:40:29.329Z,8.20
2018-09-24T04:43:03.088Z,8.20
2018-09-24T04:45:37.676Z,8.20
2018-09-24T04:48:11.396Z,8.20
2018-09-24T04:50:44.997Z,8.10
2018-09-24T04:53:18.729Z,8.10
2018-09-24T04:55:53.192Z,8.10
2018-09-24T04:58:26.871Z,8.10
2018-09-24T05:01:00.479Z,8.20
2018-09-24T05:03:34.181Z,8.20
2018-09-24T05:06:08.646Z,8.10
2018-09-24T05:08:42.255Z,8.10
2018-09-24T05:11:16.400Z,8.20
2018-09-24T05:13:50.147Z,8.10
2018-09-24T05:16:24.287Z,8.10
2018-09-24T05:18:57.920Z,8.20
2018-09-24T05:21:31.680Z,8.20
2018-09-24T05:24:05.183Z,8.10
2018-09-24T05:26:39.052Z,8.10
2018-09-24T05:29:12.769Z,8.10
2018-09-24T05:31:46.405Z,8.10
2018-09-24T05:34:20.133Z,8.10
2018-09-24T05:36:54.493Z,8.00
2018-09-24T05:39:28.197Z,8.10
2018-09-24T05:42:01.905Z,8.10
2018-09-24T05:44:35.654Z,8.20
2018-09-24T05:47:10.009Z,8.20
2018-09-24T05:49:43.468Z,8.30
2018-09-24T05:52:17.074Z,8.30
2018-09-24T05:54:50.761Z,8.30
2018-09-24T05:57:24.843Z,8.40
2018-09-24T05:59:58.560Z,8.40
2018-09-24T06:02:32.265Z,8.50
2018-09-24T06:05:05.970Z,8.60
2018-09-24T06:07:40.313Z,8.60
2018-09-24T06:10:14.084Z,8.60
2018-09-24T06:12:47.672Z,8.70
2018-09-24T06:15:21.410Z,8.60
2018-09-24T06:17:55.819Z,8.60
2018-09-24T06:20:29.601Z,8.60
2018-09-24T06:23:03.312Z,8.50
2018-09-24T06:25:36.860Z,8.50
2018-09-24T06:28:11.488Z,8.40
2018-09-24T06:30:45.071Z,8.30
2018-09-24T06:33:18.755Z,8.30
2018-09-24T06:35:52.274Z,8.20
2018-09-24T06:38:27.074Z,8.30
2018-09-24T06:41:00.794Z,8.60
2018-09-24T06:43:34.480Z,8.80
2018-09-24T06:46:07.933Z,8.90
2018-09-24T06:48:42.541Z,9.00
2018-09-24T06:51:16.204Z,9.00
2018-09-24T06:53:49.914Z,9.00
2018-09-24T06:56:23.360Z,9.20
2018-09-24T06:58:57.144Z,9.30
2018-09-24T07:01:30.922Z,9.40
2018-09-24T07:04:04.661Z,9.50
2018-09-24T07:06:38.437Z,9.60
2018-09-24T07:09:13.623Z,9.60
2018-09-24T07:11:47.516Z,9.40
2018-09-24T07:14:21.042Z,9.30
2018-09-24T07:16:54.786Z,9.10
2018-09-24T07:19:29.400Z,9.10
2018-09-24T07:22:03.003Z,9.10
2018-09-24T07:24:36.652Z,9.10
2018-09-24T07:27:10.280Z,9.10
2018-09-24T07:29:44.774Z,9.30
2018-09-24T07:32:18.471Z,9.40
2018-09-24T07:34:51.980Z,9.60
2018-09-24T07:37:25.764Z,9.70
2018-09-24T07:40:00.295Z,9.60
2018-09-24T07:42:33.983Z,9.70
2018-09-24T07:45:07.701Z,9.80
2018-09-24T07:47:41.345Z,10.00
2018-09-24T07:50:15.466Z,10.00
2018-09-24T07:52:49.234Z,10.10
2018-09-24T07:55:22.963Z,10.20
2018-09-24T07:57:56.619Z,10.30
2018-09-24T08:00:30.180Z,10.30
2018-09-24T08:03:03.948Z,10.10
2018-09-24T08:05:37.671Z,10.00
2018-09-24T08:08:11.352Z,10.10
2018-09-24T08:10:46.097Z,10.30
2018-09-24T08:13:19.680Z,10.40
2018-09-24T08:15:53.395Z,10.40
2018-09-24T08:18:27.025Z,10.20
2018-09-24T08:21:01.015Z,10.20
2018-09-24T08:23:34.713Z,10.10
2018-09-24T08:26:08.393Z,10.10
2018-09-24T08:28:42.144Z,10.10
2018-09-24T08:31:16.576Z,10.10
2018-09-24T08:33:50.216Z,10.00
2018-09-24T08:36:23.964Z,10.20
2018-09-24T08:38:57.628Z,10.40
2018-09-24T08:41:32.082Z,10.40
2018-09-24T08:44:05.786Z,10.40
2018-09-24T08:46:39.375Z,10.40
2018-09-24T08:49:13.088Z,10.50
2018-09-24T08:51:47.511Z,10.60
2018-09-24T08:54:21.220Z,10.50
2018-09-24T08:56:55.060Z,10.50
2018-09-24T08:59:28.421Z,10.60
2018-09-24T09:02:03.024Z,10.90
2018-09-24T09:04:36.728Z,10.90
2018-09-24T09:07:10.441Z,10.70
2018-09-24T09:09:44.132Z,10.60
2018-09-24T09:12:18.674Z,10.40
2018-09-24T09:14:52.476Z,10.40
2018-09-24T09:17:26.208Z,10.60
2018-09-24T09:19:59.752Z,10.90
2018-09-24T09:22:34.308Z,11.10
2018-09-24T09:25:08.037Z,11.30
2018-09-24T09:27:41.584Z,11.40
2018-09-24T09:30:15.277Z,11.40
2018-09-24T09:32:49.852Z,11.30
2018-09-24T09:35:23.424Z,11.30
2018-09-24T09:37:57.167Z,11.50
2018-09-24T09:40:31.155Z,11.50
2018-09-24T09:43:05.274Z,11.50
2018-09-24T09:45:38.964Z,11.60
2018-09-24T09:48:12.668Z,11.90
2018-09-24T09:50:46.401Z,12.20
2018-09-24T09:53:20.688Z,12.30
2018-09-24T09:55:54.414Z,12.10
2018-09-24T09:58:28.128Z,11.80
2018-09-24T10:01:01.700Z,11.60
2018-09-24T10:03:35.472Z,11.70
2018-09-24T10:06:09.160Z,12.00
2018-09-24T10:08:42.817Z,12.50
2018-09-24T10:11:16.592Z,12.70
2018-09-24T10:13:50.808Z,12.40
2018-09-24T10:16:24.571Z,12.50
